Flight Track Log - Related Links

Times and Time Zones

All times are in EDT time to prevent confusion due to time zone crossing. See the N441S flight status page for this flight to view local times or setup timezone preferences in your user account.

Time Position Orientation Groundspeed Altitude Reporting Facility
EDT Latitude Longitude Course Direction KTS MPH feet Rate Location/Type
Wed 09:06:21 AM 43.8506 -103.2008 200° South 175 201 13,900  Level Denver Center
Wed 09:07:22 AM 43.8006 -103.2256 200° South 188 216 15,700 1,230 Climbing Denver Center
Wed 09:08:23 AM 43.7469 -103.2567 203° Southwest 205 236 16,400 393 Climbing Denver Center
Wed 09:09:24 AM 43.6700 -103.3025 203° Southwest 252 290 16,500 49 Climbing Denver Center
Wed 09:10:25 AM 43.5975 -103.3414 201° Southwest 275 316 16,500  Level Denver Center
Wed 09:11:26 AM 43.5117 -103.3881 202° Southwest 289 333 16,500  Level Denver Center
Wed 09:12:27 AM 43.4367 -103.4267 200° South 298 343 16,500  Level Denver Center
Wed 09:13:28 AM 43.3622 -103.4647 200° South 299 344 16,500  Level Denver Center
Wed 09:14:29 AM 43.2756 -103.5119 202° Southwest 299 344 16,500  Level Denver Center
Wed 09:15:30 AM 43.2000 -103.5531 202° Southwest 302 348 16,500  Level Denver Center
Wed 09:16:31 AM 43.1261 -103.5936 202° Southwest 299 344 16,500  Level Denver Center
Wed 09:17:32 AM 43.0397 -103.6400 201° Southwest 299 344 16,500  Level Denver Center
Wed 09:18:33 AM 42.9639 -103.6797 201° Southwest 301 346 16,500 -293 Level Denver Center
Wed 09:19:35 AM 42.8892 -103.7197 201° Southwest 301 346 15,900 -1,122 Descending Denver Center
Wed 09:20:36 AM 42.7958 -103.7697 201° Southwest 312 359 14,200 -1,525 Descending Denver Center
Wed 09:21:37 AM 42.7172 -103.8108 201° Southwest 316 364 12,800 -1,377 Descending Denver Center
Wed 09:22:38 AM 42.6322 -103.8558 201° Southwest 305 351 11,400 -1,230 Descending Denver Center
Wed 09:23:39 AM 42.5644 -103.8922 202° Southwest 289 333 10,300 -1,033 Descending Denver Center
Wed 09:24:40 AM 42.5025 -103.9225 200° South 267 307 9,300 -885 Descending Denver Center
Wed 09:25:41 AM 42.4333 -103.9594 202° Southwest 249 287 8,500 -787 Descending Denver Center

Login

Don't have an account? Register now (free) for customized features, flight alerts, and more!